createdAt,value
2018-09-20T00:01:41.642Z,11.50
2018-09-20T00:04:10.234Z,7.10
2018-09-20T00:06:39.393Z,12.20
2018-09-20T00:09:08.445Z,15.27
2018-09-20T00:11:36.973Z,14.93
2018-09-20T00:14:05.721Z,15.70
2018-09-20T00:16:35.218Z,30.23
2018-09-20T00:19:03.814Z,12.53
2018-09-20T00:21:32.342Z,16.27
2018-09-20T00:24:00.865Z,7.67
2018-09-20T00:26:29.349Z,10.70
2018-09-20T00:28:57.890Z,11.47
2018-09-20T00:31:26.403Z,12.37
2018-09-20T00:33:54.921Z,11.83
2018-09-20T00:36:23.402Z,13.30
2018-09-20T00:38:52.456Z,20.00
2018-09-20T00:41:21.533Z,15.27
2018-09-20T00:43:50.057Z,15.37
2018-09-20T00:46:18.891Z,19.07
2018-09-20T00:48:50.481Z,20.60
2018-09-20T00:51:19.004Z,10.10
2018-09-20T00:53:47.485Z,12.33
2018-09-20T00:56:16.035Z,15.27
2018-09-20T00:58:44.530Z,15.87
2018-09-20T01:01:13.131Z,17.17
2018-09-20T01:03:41.703Z,17.83
2018-09-20T01:06:10.201Z,14.87
2018-09-20T01:08:38.750Z,16.53
2018-09-20T01:11:07.631Z,22.13
2018-09-20T01:13:36.162Z,15.03
2018-09-20T01:16:04.657Z,17.07
2018-09-20T01:18:33.189Z,11.57
2018-09-20T01:21:01.753Z,15.90
2018-09-20T01:23:30.331Z,10.80
2018-09-20T01:25:58.839Z,19.00
2018-09-20T01:28:27.334Z,14.13
2018-09-20T01:30:55.902Z,12.97
2018-09-20T01:33:24.461Z,17.77
2018-09-20T01:35:52.967Z,19.37
2018-09-20T01:38:21.485Z,15.87
2018-09-20T01:40:50.001Z,16.47
2018-09-20T01:43:18.489Z,19.17
2018-09-20T01:45:46.961Z,12.03
2018-09-20T01:48:15.434Z,21.20
2018-09-20T01:50:44.663Z,16.73
2018-09-20T01:53:13.145Z,15.30
2018-09-20T01:55:41.825Z,15.97
2018-09-20T01:58:10.382Z,22.40
2018-09-20T02:00:38.864Z,25.37
2018-09-20T02:03:07.395Z,22.50
2018-09-20T02:05:35.893Z,14.20
2018-09-20T02:08:04.401Z,12.40
2018-09-20T02:10:32.909Z,19.17
2018-09-20T02:13:01.414Z,19.43
2018-09-20T02:15:29.934Z,19.60
2018-09-20T02:17:59.370Z,15.93
2018-09-20T02:20:27.930Z,13.60
2018-09-20T02:22:56.470Z,8.20
2018-09-20T02:25:24.994Z,21.30
2018-09-20T02:27:54.176Z,20.47
2018-09-20T02:30:22.665Z,14.83
2018-09-20T02:32:51.165Z,15.90
2018-09-20T02:35:20.274Z,18.50
2018-09-20T02:37:48.913Z,18.03
2018-09-20T02:40:17.543Z,15.63
2018-09-20T02:42:46.643Z,19.50
2018-09-20T02:45:15.239Z,17.00
2018-09-20T02:47:43.745Z,20.37
2018-09-20T02:50:12.262Z,22.87
2018-09-20T02:52:40.788Z,13.73
2018-09-20T02:55:09.621Z,17.13
2018-09-20T02:57:38.144Z,27.27
2018-09-20T03:00:06.672Z,15.87
2018-09-20T03:02:35.423Z,12.60
2018-09-20T03:05:03.937Z,19.23
2018-09-20T03:07:32.426Z,15.30
2018-09-20T03:10:01.766Z,18.67
2018-09-20T03:12:30.539Z,18.30
2018-09-20T03:14:59.103Z,19.50
2018-09-20T03:17:28.903Z,21.23
2018-09-20T03:19:57.483Z,20.27
2018-09-20T03:22:26.114Z,15.60
2018-09-20T03:24:55.489Z,21.47
2018-09-20T03:27:24.723Z,19.23
2018-09-20T03:29:53.606Z,16.53
2018-09-20T03:32:22.401Z,20.13
2018-09-20T03:34:50.936Z,23.30
2018-09-20T03:37:19.664Z,17.57
2018-09-20T03:39:48.835Z,26.27
2018-09-20T03:42:17.336Z,18.70
2018-09-20T03:44:45.944Z,20.73
2018-09-20T03:47:14.454Z,20.87
2018-09-20T03:49:43.000Z,22.23
2018-09-20T03:52:11.526Z,19.67
2018-09-20T03:54:39.998Z,16.07
2018-09-20T03:57:09.379Z,21.97
2018-09-20T03:59:37.923Z,20.40
2018-09-20T04:02:06.644Z,21.33
2018-09-20T04:04:35.184Z,16.83
2018-09-20T04:07:03.696Z,16.43
2018-09-20T04:09:32.417Z,18.77
2018-09-20T04:12:01.530Z,23.83
2018-09-20T04:14:30.018Z,20.43
2018-09-20T04:16:58.560Z,22.57
2018-09-20T04:19:27.302Z,20.40
2018-09-20T04:21:59.205Z,24.50
2018-09-20T04:24:27.733Z,21.50
2018-09-20T04:26:56.286Z,20.20
2018-09-20T04:29:24.898Z,20.27
2018-09-20T04:31:54.400Z,27.17
2018-09-20T04:34:22.908Z,24.40
2018-09-20T04:36:51.430Z,21.30
2018-09-20T04:39:19.963Z,21.30
2018-09-20T04:41:49.232Z,19.57
2018-09-20T04:44:17.975Z,18.30
2018-09-20T04:46:46.516Z,21.23
2018-09-20T04:49:15.066Z,21.30
2018-09-20T04:51:43.659Z,22.20
2018-09-20T04:54:12.148Z,29.73
2018-09-20T04:56:41.301Z,21.90
2018-09-20T04:59:09.782Z,21.50
2018-09-20T05:01:38.413Z,18.23
2018-09-20T05:04:06.918Z,21.80
2018-09-20T05:06:35.626Z,30.40
2018-09-20T05:09:06.558Z,40.83
2018-09-20T05:11:35.378Z,23.47
2018-09-20T05:14:04.367Z,25.67
2018-09-20T05:16:32.934Z,23.23
2018-09-20T05:19:01.447Z,34.73
2018-09-20T05:21:30.026Z,24.60
2018-09-20T05:23:58.530Z,25.43
2018-09-20T05:26:27.089Z,30.20
2018-09-20T05:28:55.713Z,18.37
2018-09-20T05:31:24.383Z,16.53
2018-09-20T05:33:52.922Z,24.33
2018-09-20T05:36:21.410Z,16.00
2018-09-20T05:38:49.950Z,21.83
2018-09-20T05:41:19.215Z,19.70
2018-09-20T05:43:47.918Z,24.73
2018-09-20T05:46:16.959Z,24.83
2018-09-20T05:48:45.600Z,26.37
2018-09-20T05:51:14.475Z,16.90
2018-09-20T05:53:48.879Z,20.77
2018-09-20T05:56:17.448Z,21.43
2018-09-20T05:58:46.002Z,25.77
2018-09-20T06:01:14.892Z,16.67
2018-09-20T06:03:49.509Z,21.80
2018-09-20T06:06:19.287Z,27.70
2018-09-20T06:08:49.960Z,22.00
2018-09-20T06:11:19.232Z,22.03
2018-09-20T06:13:49.023Z,18.67
2018-09-20T06:16:18.188Z,25.73
2018-09-20T06:18:47.160Z,24.50
2018-09-20T06:21:20.172Z,20.83
2018-09-20T06:23:49.111Z,20.13
2018-09-20T06:26:20.256Z,24.17
2018-09-20T06:28:49.443Z,22.60
2018-09-20T06:31:19.627Z,22.27
2018-09-20T06:33:48.532Z,23.20
2018-09-20T06:36:17.535Z,30.80
2018-09-20T06:38:46.759Z,23.07
2018-09-20T06:41:15.809Z,26.87
2018-09-20T06:43:47.414Z,19.73
2018-09-20T06:46:19.723Z,26.20
2018-09-20T06:48:48.473Z,24.00
2018-09-20T06:51:17.368Z,16.20
2018-09-20T06:53:47.912Z,16.87
2018-09-20T06:56:16.479Z,22.73
2018-09-20T06:58:45.952Z,25.00
2018-09-20T07:01:14.495Z,24.93
2018-09-20T07:03:43.932Z,21.23
2018-09-20T07:06:12.450Z,23.23
2018-09-20T07:08:40.955Z,21.90
2018-09-20T07:11:10.066Z,19.23
2018-09-20T07:13:39.603Z,17.63
2018-09-20T07:16:08.431Z,22.23
2018-09-20T07:18:37.354Z,22.80
2018-09-20T07:21:06.380Z,18.10
2018-09-20T07:23:34.873Z,19.17
2018-09-20T07:26:03.623Z,22.80
2018-09-20T07:28:32.519Z,19.53
2018-09-20T07:31:01.062Z,22.77
2018-09-20T07:33:30.363Z,24.67
2018-09-20T07:35:59.689Z,15.57
2018-09-20T07:38:28.207Z,24.70
2018-09-20T07:40:56.731Z,18.40
2018-09-20T07:43:25.300Z,28.07
2018-09-20T07:45:54.654Z,23.80
2018-09-20T07:48:23.787Z,19.20
2018-09-20T07:50:52.579Z,18.10
2018-09-20T07:53:21.754Z,28.83
2018-09-20T07:55:51.377Z,20.77
2018-09-20T07:58:20.042Z,21.43
2018-09-20T08:00:49.555Z,21.90
2018-09-20T08:03:19.278Z,24.53
2018-09-20T08:05:48.235Z,22.93
2018-09-20T08:08:17.431Z,18.90
2018-09-20T08:10:47.010Z,19.67
2018-09-20T08:13:16.046Z,24.73
2018-09-20T08:15:45.558Z,22.53
2018-09-20T08:18:14.102Z,22.47
2018-09-20T08:20:42.595Z,15.10
2018-09-20T08:23:11.194Z,19.60
2018-09-20T08:25:39.744Z,22.00
2018-09-20T08:28:08.585Z,20.30
2018-09-20T08:30:37.850Z,24.87
2018-09-20T08:33:06.626Z,21.57
2018-09-20T08:35:35.416Z,15.70
2018-09-20T08:38:03.928Z,24.83
2018-09-20T08:40:32.442Z,22.63
2018-09-20T08:43:00.941Z,25.93
2018-09-20T08:45:29.583Z,15.97
2018-09-20T08:47:58.262Z,13.17
2018-09-20T08:50:26.784Z,12.63
2018-09-20T08:52:57.030Z,16.03
2018-09-20T08:55:26.769Z,14.40
2018-09-20T08:57:57.431Z,18.23
2018-09-20T09:00:27.314Z,21.07
2018-09-20T09:02:56.470Z,17.33
2018-09-20T09:05:25.899Z,24.73
2018-09-20T09:07:55.020Z,14.37
2018-09-20T09:10:23.630Z,14.90
2018-09-20T09:12:52.756Z,13.63
2018-09-20T09:15:21.401Z,15.17
2018-09-20T09:17:51.013Z,11.47
2018-09-20T09:20:19.662Z,15.83
2018-09-20T09:22:48.837Z,26.03
2018-09-20T09:25:17.318Z,20.60
2018-09-20T09:27:46.614Z,15.17
2018-09-20T09:30:15.834Z,15.73
2018-09-20T09:32:44.329Z,20.40
2018-09-20T09:35:12.871Z,21.40
2018-09-20T09:37:41.423Z,14.80
2018-09-20T09:40:09.998Z,14.43
2018-09-20T09:42:38.502Z,12.60
2018-09-20T09:45:07.986Z,12.80
2018-09-20T09:47:37.275Z,12.77
2018-09-20T09:50:05.954Z,15.83
2018-09-20T09:52:34.470Z,18.27
2018-09-20T09:55:03.367Z,16.17
2018-09-20T09:57:32.402Z,10.37
2018-09-20T10:00:01.087Z,16.70
2018-09-20T10:02:30.267Z,14.60
2018-09-20T10:05:01.756Z,18.03
2018-09-20T10:07:30.374Z,22.30
2018-09-20T10:09:59.591Z,10.43
2018-09-20T10:12:28.899Z,25.73
2018-09-20T10:14:58.096Z,12.23
2018-09-20T10:17:26.600Z,12.80
2018-09-20T10:19:55.176Z,17.37
2018-09-20T10:22:23.738Z,14.93
2018-09-20T10:24:52.275Z,24.83
2018-09-20T10:27:20.830Z,15.57
2018-09-20T10:29:49.370Z,18.73
2018-09-20T10:32:17.927Z,15.40
2018-09-20T10:34:46.904Z,12.00
2018-09-20T10:37:15.552Z,17.50
2018-09-20T10:39:47.135Z,15.50
2018-09-20T10:42:15.851Z,12.50
2018-09-20T10:44:46.525Z,11.53
2018-09-20T10:47:16.564Z,22.30
2018-09-20T10:49:46.842Z,25.37
2018-09-20T10:52:16.454Z,24.47
2018-09-20T10:54:46.223Z,14.47
2018-09-20T10:57:15.626Z,16.10
2018-09-20T10:59:45.757Z,14.60
2018-09-20T11:02:19.540Z,8.77
2018-09-20T11:04:48.043Z,12.70
2018-09-20T11:07:17.421Z,7.60
2018-09-20T11:09:45.982Z,9.10
2018-09-20T11:12:17.639Z,13.93
2018-09-20T11:14:48.971Z,12.53
2018-09-20T11:17:18.209Z,21.30
2018-09-20T11:19:49.402Z,15.43
2018-09-20T11:22:17.922Z,24.90
2018-09-20T11:24:46.668Z,15.57
2018-09-20T11:27:15.331Z,12.93
2018-09-20T11:29:44.760Z,12.17
2018-09-20T11:32:15.483Z,7.90
2018-09-20T11:34:48.031Z,16.07
2018-09-20T11:37:18.413Z,21.03
2018-09-20T11:39:48.795Z,9.27
2018-09-20T11:42:19.142Z,9.27
2018-09-20T11:44:47.669Z,13.13
2018-09-20T11:47:16.668Z,9.60
2018-09-20T11:49:45.207Z,11.23
2018-09-20T11:52:13.719Z,17.93
2018-09-20T11:54:42.275Z,8.10
2018-09-20T11:57:10.855Z,9.53
2018-09-20T11:59:39.428Z,10.87
2018-09-20T12:02:08.604Z,15.60
2018-09-20T12:04:37.167Z,15.40
2018-09-20T12:07:07.195Z,10.23
2018-09-20T12:09:36.328Z,18.53
2018-09-20T12:12:05.799Z,12.47
2018-09-20T12:14:35.134Z,6.13
2018-09-20T12:17:03.679Z,17.20
2018-09-20T12:19:32.911Z,9.77
2018-09-20T12:22:02.254Z,14.03
2018-09-20T12:24:30.762Z,10.83
2018-09-20T12:26:59.270Z,8.33
2018-09-20T12:29:28.125Z,10.53
2018-09-20T12:31:57.641Z,12.90
2018-09-20T12:34:26.201Z,9.13
2018-09-20T12:36:55.927Z,7.30
2018-09-20T12:39:24.546Z,7.47
2018-09-20T12:41:53.830Z,11.53
2018-09-20T12:44:22.327Z,15.27
2018-09-20T12:46:51.046Z,7.20
2018-09-20T12:49:19.565Z,8.27
2018-09-20T12:51:49.094Z,12.73
2018-09-20T12:54:19.607Z,9.60
2018-09-20T12:56:48.125Z,14.03
2018-09-20T12:59:16.640Z,9.23
2018-09-20T13:01:45.168Z,17.30
2018-09-20T13:04:14.311Z,16.33
2018-09-20T13:06:42.839Z,5.83
2018-09-20T13:09:11.653Z,11.83
2018-09-20T13:11:40.831Z,8.80
2018-09-20T13:14:09.373Z,12.63
2018-09-20T13:16:38.106Z,9.00
2018-09-20T13:19:06.674Z,6.63
2018-09-20T13:21:35.223Z,10.63
2018-09-20T13:24:03.760Z,6.73
2018-09-20T13:26:32.327Z,11.93
2018-09-20T13:29:00.842Z,14.20
2018-09-20T13:31:30.598Z,15.70
2018-09-20T13:34:00.505Z,8.83
2018-09-20T13:36:29.060Z,10.87
2018-09-20T13:38:57.604Z,7.50
2018-09-20T13:41:26.203Z,10.97
2018-09-20T13:43:55.706Z,12.43
2018-09-20T13:46:24.610Z,12.80
2018-09-20T13:48:53.259Z,13.50
2018-09-20T13:51:21.783Z,5.27
2018-09-20T13:53:51.823Z,8.43
2018-09-20T13:56:20.396Z,10.27
2018-09-20T13:58:49.292Z,7.47
2018-09-20T14:01:18.374Z,11.90
2018-09-20T14:03:47.062Z,12.40
2018-09-20T14:06:15.554Z,9.07
2018-09-20T14:08:44.117Z,9.27
2018-09-20T14:11:12.823Z,6.30
2018-09-20T14:13:42.019Z,9.27
2018-09-20T14:16:10.591Z,10.03
2018-09-20T14:18:39.207Z,15.10
2018-09-20T14:21:08.381Z,9.17
2018-09-20T14:23:36.993Z,16.43
2018-09-20T14:26:06.281Z,8.83
2018-09-20T14:28:34.827Z,13.40
2018-09-20T14:31:03.391Z,10.70
2018-09-20T14:33:32.002Z,6.87
2018-09-20T14:36:00.517Z,8.47
2018-09-20T14:38:30.050Z,12.77
2018-09-20T14:40:58.724Z,8.23
2018-09-20T14:43:27.235Z,14.70
2018-09-20T14:45:55.767Z,10.40
2018-09-20T14:48:25.410Z,6.67
2018-09-20T14:50:54.718Z,7.47
2018-09-20T14:53:23.887Z,10.10
2018-09-20T14:55:52.502Z,18.80
2018-09-20T14:58:22.112Z,7.50
2018-09-20T15:00:50.743Z,7.97
2018-09-20T15:03:20.779Z,5.83
2018-09-20T15:05:49.416Z,10.83
2018-09-20T15:08:17.968Z,8.67
2018-09-20T15:10:46.730Z,8.83
2018-09-20T15:13:15.242Z,7.10
2018-09-20T15:15:43.775Z,4.97
2018-09-20T15:18:12.796Z,4.97
2018-09-20T15:20:41.349Z,11.23
2018-09-20T15:23:09.942Z,6.40
2018-09-20T15:25:39.814Z,9.40
2018-09-20T15:28:09.070Z,6.50
2018-09-20T15:30:37.579Z,9.33
2018-09-20T15:33:06.495Z,7.57
2018-09-20T15:35:35.166Z,11.03
2018-09-20T15:38:04.952Z,8.10
2018-09-20T15:40:33.654Z,10.00
2018-09-20T15:43:02.334Z,8.50
2018-09-20T15:45:30.906Z,7.93
2018-09-20T15:48:00.238Z,14.07
2018-09-20T15:50:28.930Z,9.23
2018-09-20T15:53:29.037Z,23.07
2018-09-20T15:55:57.593Z,6.57
2018-09-20T15:58:26.193Z,13.13
2018-09-20T16:00:55.575Z,12.83
2018-09-20T16:03:24.233Z,11.90
2018-09-20T16:05:53.501Z,8.07
2018-09-20T16:08:22.083Z,11.67
2018-09-20T16:10:50.919Z,6.87
2018-09-20T16:13:19.542Z,10.00
2018-09-20T16:15:48.560Z,12.10
2018-09-20T16:18:17.797Z,8.60
2018-09-20T16:20:47.072Z,27.60
2018-09-20T16:23:15.747Z,28.73
2018-09-20T16:25:44.884Z,7.70
2018-09-20T16:28:25.480Z,35.00
2018-09-20T16:31:09.647Z,17.23
2018-09-20T16:35:00.195Z,12.67
2018-09-20T16:37:41.955Z,18.90
2018-09-20T16:40:12.599Z,16.87
2018-09-20T16:42:43.498Z,22.30
2018-09-20T16:45:12.150Z,14.40
2018-09-20T16:47:40.670Z,8.93
2018-09-20T16:50:09.894Z,11.53
2018-09-20T16:52:38.894Z,8.40
2018-09-20T16:55:07.432Z,11.30
2018-09-20T16:57:36.690Z,9.13
2018-09-20T17:00:07.198Z,21.83
2018-09-20T17:02:35.791Z,21.43
2018-09-20T17:05:05.207Z,7.20
2018-09-20T17:07:33.695Z,17.97
2018-09-20T17:10:02.296Z,22.50
2018-09-20T17:12:30.851Z,22.27
2018-09-20T17:14:59.895Z,15.43
2018-09-20T17:17:28.330Z,11.33
2018-09-20T17:19:56.922Z,9.40
2018-09-20T17:22:25.491Z,8.83
2018-09-20T17:24:54.055Z,11.00
2018-09-20T17:27:24.345Z,9.33
2018-09-20T17:29:53.667Z,7.60
2018-09-20T17:32:22.925Z,8.43
2018-09-20T17:34:52.224Z,11.67
2018-09-20T17:37:22.647Z,13.03
2018-09-20T17:39:53.106Z,8.20
2018-09-20T17:42:23.404Z,9.60
2018-09-20T17:44:52.672Z,13.30
2018-09-20T17:47:21.274Z,8.07
2018-09-20T17:49:49.815Z,10.30
2018-09-20T17:52:19.616Z,8.87
2018-09-20T17:54:49.403Z,7.37
2018-09-20T17:57:19.322Z,20.40
2018-09-20T17:59:48.635Z,14.83
2018-09-20T18:02:17.390Z,9.80
2018-09-20T18:04:45.931Z,12.40
2018-09-20T18:07:15.188Z,9.60
2018-09-20T18:09:43.753Z,16.93
2018-09-20T18:12:13.421Z,12.93
2018-09-20T18:14:41.983Z,20.00
2018-09-20T18:17:10.535Z,11.73
2018-09-20T18:19:40.092Z,10.23
2018-09-20T18:22:09.905Z,6.77
2018-09-20T18:24:38.514Z,22.53
2018-09-20T18:27:07.424Z,14.53
2018-09-20T18:29:36.108Z,32.07
2018-09-20T18:32:04.795Z,8.20
2018-09-20T18:34:33.351Z,12.20
2018-09-20T18:37:02.456Z,9.97
2018-09-20T18:39:31.015Z,6.70
2018-09-20T18:41:59.544Z,7.30
2018-09-20T18:44:28.874Z,11.47
2018-09-20T18:46:58.369Z,10.97
2018-09-20T18:49:26.930Z,6.60
2018-09-20T18:51:55.550Z,8.67
2018-09-20T18:54:24.085Z,7.87
2018-09-20T18:56:52.807Z,14.90
2018-09-20T18:59:21.909Z,9.37
2018-09-20T19:01:50.510Z,9.73
2018-09-20T19:04:19.038Z,13.80
2018-09-20T19:06:47.521Z,10.23
2018-09-20T19:09:16.023Z,7.67
2018-09-20T19:11:45.318Z,11.53
2018-09-20T19:14:13.810Z,9.33
2018-09-20T19:16:42.410Z,18.63
2018-09-20T19:19:10.953Z,11.50
2018-09-20T19:21:39.665Z,7.43
2018-09-20T19:24:08.367Z,12.67
2018-09-20T19:26:37.026Z,5.63
2018-09-20T19:29:05.603Z,10.37
2018-09-20T19:31:34.348Z,19.37
2018-09-20T19:34:03.611Z,10.10
2018-09-20T19:36:32.130Z,8.77
2018-09-20T19:39:00.691Z,7.17
2018-09-20T19:41:29.264Z,11.93
2018-09-20T19:43:57.801Z,11.73
2018-09-20T19:46:26.347Z,9.20
2018-09-20T19:48:54.859Z,6.97
2018-09-20T19:51:23.384Z,7.90
2018-09-20T19:53:52.158Z,9.40
2018-09-20T19:56:20.699Z,9.40
2018-09-20T19:58:49.247Z,9.03
2018-09-20T20:01:17.781Z,7.07
2018-09-20T20:03:46.307Z,11.37
2018-09-20T20:06:14.864Z,6.83
2018-09-20T20:08:43.670Z,7.03
2018-09-20T20:11:12.574Z,10.40
2018-09-20T20:13:41.280Z,14.00
2018-09-20T20:16:11.152Z,9.60
2018-09-20T20:18:40.151Z,8.20
2018-09-20T20:21:08.638Z,8.47
2018-09-20T20:23:37.198Z,11.73
2018-09-20T20:26:05.816Z,11.97
2018-09-20T20:28:34.403Z,7.10
2018-09-20T20:31:02.922Z,6.83
2018-09-20T20:33:31.477Z,8.00
2018-09-20T20:36:00.148Z,10.00
2018-09-20T20:38:28.685Z,9.90
2018-09-20T20:40:57.401Z,8.40
2018-09-20T20:43:25.923Z,6.40
2018-09-20T20:45:54.434Z,10.60
2018-09-20T20:48:22.963Z,13.47
2018-09-20T20:50:51.451Z,10.70
2018-09-20T20:53:20.070Z,9.80
2018-09-20T20:55:48.546Z,5.83
2018-09-20T20:58:17.135Z,11.30
2018-09-20T21:00:46.641Z,9.37
2018-09-20T21:03:15.665Z,13.50
2018-09-20T21:05:44.296Z,6.20
2018-09-20T21:08:13.299Z,11.90
2018-09-20T21:10:41.818Z,8.73
2018-09-20T21:13:10.340Z,8.60
2018-09-20T21:15:39.050Z,14.07
2018-09-20T21:18:08.299Z,8.30
2018-09-20T21:20:36.824Z,13.00
2018-09-20T21:23:05.476Z,9.07
2018-09-20T21:25:34.899Z,14.43
2018-09-20T21:28:03.463Z,10.87
2018-09-20T21:30:31.977Z,10.13
2018-09-20T21:33:00.461Z,7.07
2018-09-20T21:35:28.973Z,5.33
2018-09-20T21:37:57.487Z,5.87
2018-09-20T21:40:26.068Z,12.20
2018-09-20T21:42:54.571Z,8.57
2018-09-20T21:45:23.085Z,5.03
2018-09-20T21:47:52.627Z,11.00
2018-09-20T21:50:21.194Z,13.03
2018-09-20T21:52:49.718Z,5.50
2018-09-20T21:55:18.978Z,8.50
2018-09-20T21:57:47.529Z,13.43
2018-09-20T22:00:16.207Z,8.23
2018-09-20T22:02:50.106Z,18.10
2018-09-20T22:05:18.903Z,9.73
2018-09-20T22:07:47.410Z,11.27
2018-09-20T22:10:15.910Z,9.20
2018-09-20T22:12:44.476Z,8.30
2018-09-20T22:15:28.515Z,7.87
2018-09-20T22:17:57.603Z,11.50
2018-09-20T22:20:29.374Z,12.97
2018-09-20T22:22:57.993Z,5.90
2018-09-20T22:25:26.558Z,6.27
2018-09-20T22:27:55.109Z,5.97
2018-09-20T22:30:23.641Z,7.50
2018-09-20T22:32:52.165Z,11.00
2018-09-20T22:35:20.703Z,8.20
2018-09-20T22:37:49.197Z,10.60
2018-09-20T22:40:17.674Z,9.77
2018-09-20T22:42:46.242Z,5.23
2018-09-20T22:45:14.790Z,11.97
2018-09-20T22:47:43.275Z,6.93
2018-09-20T22:50:11.795Z,6.33
2018-09-20T22:52:40.331Z,9.53
2018-09-20T22:55:08.896Z,6.60
2018-09-20T22:57:37.438Z,9.30
2018-09-20T23:00:06.383Z,8.13
2018-09-20T23:02:34.968Z,12.10
2018-09-20T23:05:03.523Z,8.20
2018-09-20T23:07:32.166Z,12.93
2018-09-20T23:10:00.693Z,13.03
2018-09-20T23:12:29.286Z,14.53
2018-09-20T23:14:58.471Z,7.50
2018-09-20T23:17:27.036Z,4.87
2018-09-20T23:19:55.611Z,4.23
2018-09-20T23:22:24.119Z,4.00
2018-09-20T23:24:52.763Z,8.63
2018-09-20T23:27:21.289Z,7.20
2018-09-20T23:29:49.791Z,8.53
2018-09-20T23:32:18.379Z,13.07
2018-09-20T23:34:46.870Z,7.40
2018-09-20T23:37:15.352Z,7.13
2018-09-20T23:39:43.866Z,10.30
2018-09-20T23:42:12.363Z,6.03
2018-09-20T23:44:40.883Z,13.67
2018-09-20T23:47:09.421Z,5.20
2018-09-20T23:49:37.951Z,5.07
2018-09-20T23:52:07.365Z,7.90
2018-09-20T23:54:35.851Z,11.13
2018-09-20T23:57:04.475Z,4.20
2018-09-20T23:59:32.966Z,6.63
